Time;durP1;ratioP1;P1;durP2;ratioP2;P2;SDS_P1;SDS_P2;PMS_P1;PMS_P2;Temp;Humidity;BMP_temperature;BMP_pressure;BME280_temperature;BME280_humidity;BME280_pressure;Samples;Min_cycle;Max_cycle;Signal;HPM_P1;HPM_P2
2022/05/30 00:01:16;;;;;;;4.15;1.05;;;9.70;99.90;;;;;;4985533;28;20046;-53
2022/05/30 00:03:42;;;;;;;5.15;1.00;;;9.70;99.90;;;;;;4971728;28;20482;-51
2022/05/30 00:06:10;;;;;;;6.93;1.40;;;9.60;99.90;;;;;;4979520;28;20037;-54
2022/05/30 00:08:37;;;;;;;5.63;1.27;;;9.60;99.90;;;;;;4969032;28;20069;-52
2022/05/30 00:11:05;;;;;;;2.08;0.90;;;9.60;99.90;;;;;;4980902;28;20121;-55
2022/05/30 00:13:31;;;;;;;3.47;0.95;;;9.60;99.90;;;;;;4993414;28;20046;-54
2022/05/30 00:15:57;;;;;;;3.65;1.10;;;9.60;99.90;;;;;;4992235;28;20142;-54
2022/05/30 00:18:22;;;;;;;6.07;1.27;;;9.70;99.90;;;;;;4992474;28;20069;-55
2022/05/30 00:20:49;;;;;;;3.03;1.20;;;9.70;99.90;;;;;;4990160;28;20184;-54
2022/05/30 00:23:14;;;;;;;2.30;1.00;;;9.70;99.90;;;;;;4972596;28;20049;-55
2022/05/30 00:25:42;;;;;;;3.97;1.10;;;9.70;99.90;;;;;;4994635;28;20037;-54
2022/05/30 00:28:09;;;;;;;3.78;1.20;;;9.70;99.90;;;;;;4988820;28;20079;-51
2022/05/30 00:30:34;;;;;;;5.63;1.77;;;9.70;99.90;;;;;;4999420;28;20043;-53
2022/05/30 00:33:00;;;;;;;3.08;1.20;;;9.70;99.90;;;;;;4989715;28;20048;-54
2022/05/30 00:35:27;;;;;;;3.85;1.35;;;9.70;99.90;;;;;;4968482;28;20304;-54
2022/05/30 00:37:52;;;;;;;3.70;1.50;;;9.70;99.90;;;;;;4992966;28;20355;-53
2022/05/30 00:40:18;;;;;;;3.15;1.10;;;9.70;99.90;;;;;;4991963;28;20052;-56
2022/05/30 00:42:44;;;;;;;3.65;1.50;;;9.70;99.90;;;;;;4992016;28;20044;-55
2022/05/30 00:45:10;;;;;;;4.30;1.90;;;9.70;99.90;;;;;;4993490;28;20115;-51
2022/05/30 00:47:37;;;;;;;4.80;1.85;;;9.60;99.90;;;;;;4990023;28;20061;-52
2022/05/30 00:50:04;;;;;;;4.85;1.88;;;9.60;99.90;;;;;;4971790;28;20133;-55
2022/05/30 00:52:36;;;;;;;6.85;2.00;;;9.50;99.90;;;;;;4994679;28;20066;-54
2022/05/30 00:55:12;;;;;;;3.92;1.42;;;9.50;99.90;;;;;;4988567;28;20168;-56
2022/05/30 00:57:39;;;;;;;3.67;1.65;;;9.50;99.90;;;;;;4987933;28;20050;-52
2022/05/30 01:00:17;;;;;;;6.03;1.80;;;9.40;99.90;;;;;;4987024;28;20041;-55
2022/05/30 01:02:43;;;;;;;4.40;1.73;;;9.40;99.90;;;;;;4992118;28;20126;-53
2022/05/30 01:07:59;;;;;;;5.97;1.80;;;9.30;99.90;;;;;;4991420;28;20046;-56
2022/05/30 01:10:26;;;;;;;4.07;1.70;;;9.30;99.90;;;;;;5000986;28;20054;-56
2022/05/30 01:12:54;;;;;;;4.18;1.75;;;9.30;99.90;;;;;;4980970;28;20042;-53
2022/05/30 01:15:23;;;;;;;3.25;1.42;;;9.20;99.90;;;;;;4984132;28;20881;-54
2022/05/30 01:17:58;;;;;;;6.00;1.50;;;9.20;99.90;;;;;;4990663;28;20037;-56
2022/05/30 01:20:39;;;;;;;6.28;1.58;;;9.20;99.90;;;;;;5006209;28;20320;-51
2022/05/30 01:23:14;;;;;;;3.72;1.52;;;9.10;99.90;;;;;;4988528;28;20523;-56
2022/05/30 01:25:54;;;;;;;7.53;2.90;;;9.10;99.90;;;;;;4989479;28;20459;-56
2022/05/30 01:28:44;;;;;;;5.13;1.80;;;9.10;99.90;;;;;;4987258;28;20080;-55
2022/05/30 01:31:11;;;;;;;3.13;1.55;;;9.00;99.90;;;;;;4988595;28;20041;-53
2022/05/30 01:33:37;;;;;;;6.72;1.90;;;9.00;99.90;;;;;;4991648;28;20045;-55
2022/05/30 01:36:03;;;;;;;8.07;1.80;;;9.00;99.90;;;;;;4988680;28;20531;-53
2022/05/30 01:38:29;;;;;;;5.15;1.75;;;8.90;99.90;;;;;;4991019;28;20048;-53
2022/05/30 01:40:56;;;;;;;8.00;2.65;;;8.90;99.90;;;;;;4971828;28;20041;-56
2022/05/30 01:43:23;;;;;;;4.85;1.85;;;8.90;99.90;;;;;;4971791;28;20060;-53
2022/05/30 01:45:49;;;;;;;3.60;1.67;;;9.00;99.90;;;;;;4986347;28;20038;-54
2022/05/30 01:48:15;;;;;;;4.97;1.58;;;8.90;99.90;;;;;;4991025;28;20093;-54
2022/05/30 01:50:40;;;;;;;4.05;1.63;;;8.90;99.90;;;;;;4988471;28;20077;-55
2022/05/30 01:53:07;;;;;;;4.70;1.77;;;9.00;99.90;;;;;;4974123;28;20596;-53
2022/05/30 01:55:32;;;;;;;5.45;1.98;;;8.90;99.90;;;;;;4990633;28;20665;-54
2022/05/30 01:57:59;;;;;;;6.40;1.90;;;9.00;99.90;;;;;;4991474;28;20042;-53
2022/05/30 02:00:25;;;;;;;4.30;1.52;;;9.00;99.90;;;;;;4971599;28;20049;-56
2022/05/30 02:02:51;;;;;;;5.05;1.60;;;8.90;99.90;;;;;;4986344;28;20042;-57
2022/05/30 02:05:16;;;;;;;4.03;1.30;;;8.90;99.90;;;;;;4973106;28;20559;-56
2022/05/30 02:07:42;;;;;;;4.47;1.40;;;9.00;99.90;;;;;;4969743;28;20080;-57
2022/05/30 02:10:08;;;;;;;6.97;1.95;;;9.00;99.90;;;;;;4989473;28;20226;-56
2022/05/30 02:12:34;;;;;;;7.95;1.70;;;9.00;99.90;;;;;;5003952;28;20367;-53
2022/05/30 02:15:00;;;;;;;5.35;2.00;;;8.90;99.90;;;;;;4986219;28;20538;-54
2022/05/30 02:17:26;;;;;;;5.72;1.70;;;8.80;99.90;;;;;;4981941;28;20069;-56
2022/05/30 02:19:52;;;;;;;5.85;1.40;;;8.70;99.90;;;;;;4970071;28;20034;-56
2022/05/30 02:22:22;;;;;;;7.15;2.28;;;8.70;99.90;;;;;;4989645;28;20073;-53
2022/05/30 02:24:51;;;;;;;5.03;1.80;;;8.70;99.90;;;;;;4984974;28;20061;-55
2022/05/30 02:27:18;;;;;;;6.38;2.38;;;8.70;99.90;;;;;;4991758;28;20096;-54
2022/05/30 02:29:44;;;;;;;6.63;2.50;;;8.70;99.90;;;;;;4972583;28;20131;-55
2022/05/30 02:32:10;;;;;;;3.03;1.95;;;8.70;99.90;;;;;;4987370;28;20167;-53
2022/05/30 02:37:20;;;;;;;5.85;2.15;;;8.70;99.90;;;;;;4985460;28;20046;-56
2022/05/30 02:39:46;;;;;;;8.73;2.45;;;8.70;99.90;;;;;;4987593;28;20053;-53
2022/05/30 02:42:12;;;;;;;5.70;1.85;;;8.80;99.90;;;;;;4988040;28;20045;-53
2022/05/30 02:44:37;;;;;;;5.25;2.00;;;8.80;99.90;;;;;;4968885;28;20057;-56
2022/05/30 02:47:04;;;;;;;5.40;2.22;;;8.80;99.90;;;;;;4984965;28;20070;-50
2022/05/30 02:49:30;;;;;;;5.68;2.00;;;8.80;99.90;;;;;;5003966;28;20034;-57
2022/05/30 02:51:56;;;;;;;8.10;2.58;;;8.80;99.90;;;;;;4991243;28;20555;-52
2022/05/30 02:54:23;;;;;;;3.95;1.48;;;8.80;99.90;;;;;;5003519;28;20069;-55
2022/05/30 02:56:54;;;;;;;8.30;2.33;;;8.90;99.90;;;;;;4990805;28;20382;-56
2022/05/30 02:59:20;;;;;;;6.88;2.10;;;8.90;99.90;;;;;;4993654;28;20068;-52
2022/05/30 03:01:45;;;;;;;6.05;1.70;;;8.90;99.90;;;;;;4990901;28;20050;-55
2022/05/30 03:04:12;;;;;;;3.90;1.73;;;8.90;99.90;;;;;;4977516;28;20087;-51
2022/05/30 03:06:38;;;;;;;6.70;2.67;;;9.00;99.90;;;;;;4972915;28;20042;-54
2022/05/30 03:09:05;;;;;;;8.13;2.13;;;9.00;99.90;;;;;;4989444;28;20501;-54
2022/05/30 03:11:31;;;;;;;8.95;2.08;;;9.00;99.90;;;;;;4991769;28;20041;-53
2022/05/30 03:13:57;;;;;;;7.78;2.55;;;9.00;99.90;;;;;;5007882;28;20103;-51
2022/05/30 03:16:23;;;;;;;3.97;1.80;;;9.00;99.90;;;;;;4992338;28;20529;-55
2022/05/30 03:18:49;;;;;;;5.93;2.20;;;9.00;99.90;;;;;;4985813;28;20034;-54
2022/05/30 03:21:15;;;;;;;4.22;2.25;;;9.00;99.90;;;;;;4995643;28;20128;-54
2022/05/30 03:23:41;;;;;;;3.40;2.20;;;9.00;99.90;;;;;;4973340;28;20042;-53
2022/05/30 03:26:07;;;;;;;5.32;2.17;;;9.00;99.90;;;;;;4989565;28;20065;-53
2022/05/30 03:28:34;;;;;;;6.05;2.60;;;9.00;99.90;;;;;;4990629;28;20048;-55
2022/05/30 03:31:01;;;;;;;3.35;1.38;;;9.00;99.90;;;;;;4994368;28;20033;-53
2022/05/30 03:33:28;;;;;;;4.65;1.73;;;8.90;99.90;;;;;;4994503;28;20157;-54
2022/05/30 03:35:54;;;;;;;3.03;1.83;;;8.90;99.90;;;;;;4993045;28;20050;-55
2022/05/30 03:38:20;;;;;;;7.13;2.10;;;8.90;99.90;;;;;;4997678;28;20045;-53
2022/05/30 03:40:46;;;;;;;8.38;2.30;;;9.00;99.90;;;;;;4990851;28;20042;-56
2022/05/30 03:43:12;;;;;;;4.22;2.30;;;9.00;99.90;;;;;;4982824;28;20121;-55
2022/05/30 03:45:40;;;;;;;3.55;1.75;;;9.00;99.90;;;;;;4991724;28;20500;-54
2022/05/30 03:48:08;;;;;;;4.00;1.88;;;9.00;99.90;;;;;;4996954;28;20038;-56
2022/05/30 03:50:34;;;;;;;8.45;2.50;;;9.00;99.90;;;;;;4986020;28;20050;-55
2022/05/30 03:53:06;;;;;;;4.00;1.95;;;9.10;99.90;;;;;;4990333;28;20057;-55
2022/05/30 03:55:35;;;;;;;5.22;1.75;;;9.10;99.90;;;;;;4991608;28;20132;-57
2022/05/30 03:58:05;;;;;;;2.88;1.70;;;9.10;99.90;;;;;;4993558;28;20123;-55
2022/05/30 04:00:32;;;;;;;4.20;1.85;;;9.10;99.90;;;;;;5014240;28;20053;-52
2022/05/30 04:02:59;;;;;;;5.05;1.50;;;9.20;99.90;;;;;;4991789;28;20042;-53
2022/05/30 04:05:25;;;;;;;5.28;1.90;;;9.20;99.90;;;;;;4990782;28;20050;-53
2022/05/30 04:07:50;;;;;;;4.47;2.08;;;9.20;99.90;;;;;;4984224;28;20069;-59
2022/05/30 04:10:17;;;;;;;5.20;1.98;;;9.20;99.90;;;;;;4975457;28;20073;-60
2022/05/30 04:12:42;;;;;;;6.60;2.15;;;9.20;99.90;;;;;;4990139;28;20038;-53
2022/05/30 04:15:15;;;;;;;3.72;1.75;;;9.30;99.90;;;;;;4974753;28;20595;-51
2022/05/30 04:17:40;;;;;;;4.85;2.03;;;9.40;99.90;;;;;;4994001;28;20049;-52
2022/05/30 04:20:07;;;;;;;4.28;1.70;;;9.30;99.90;;;;;;4990402;28;20042;-52
2022/05/30 04:22:33;;;;;;;5.47;1.80;;;9.40;99.90;;;;;;4996321;28;20107;-59
2022/05/30 04:24:59;;;;;;;3.53;1.80;;;9.50;99.90;;;;;;4989400;28;20436;-56
2022/05/30 04:27:24;;;;;;;4.22;2.13;;;9.50;99.90;;;;;;4988765;28;20504;-54
2022/05/30 04:29:50;;;;;;;5.07;1.85;;;9.50;99.90;;;;;;4989003;28;20116;-52
2022/05/30 04:32:17;;;;;;;5.07;1.83;;;9.50;99.90;;;;;;4994387;28;20033;-54
2022/05/30 04:34:43;;;;;;;3.35;1.95;;;9.50;99.90;;;;;;4964668;28;20064;-55
2022/05/30 04:37:09;;;;;;;7.28;2.10;;;9.60;99.90;;;;;;4992623;23;20070;-60
2022/05/30 04:39:36;;;;;;;3.22;1.90;;;9.50;99.90;;;;;;4999737;28;20050;-58
2022/05/30 04:42:02;;;;;;;3.72;1.70;;;9.50;99.90;;;;;;4971565;28;20034;-58
2022/05/30 04:44:28;;;;;;;4.45;2.00;;;9.50;99.90;;;;;;4985019;28;20368;-58
2022/05/30 04:46:55;;;;;;;7.57;2.22;;;9.40;99.90;;;;;;4993671;28;20073;-59
2022/05/30 04:49:22;;;;;;;2.78;1.80;;;9.50;99.90;;;;;;4990118;28;20116;-59
2022/05/30 04:51:49;;;;;;;3.42;2.00;;;9.50;99.90;;;;;;4992694;28;20061;-58
2022/05/30 04:54:16;;;;;;;3.83;1.67;;;9.50;99.90;;;;;;4990691;28;20497;-58
2022/05/30 04:56:42;;;;;;;3.88;1.80;;;9.50;99.90;;;;;;4989972;28;20072;-56
2022/05/30 04:59:08;;;;;;;4.88;1.45;;;9.50;99.90;;;;;;4986590;28;20034;-57
2022/05/30 05:01:35;;;;;;;3.80;1.83;;;9.50;99.90;;;;;;4989827;28;20100;-56
2022/05/30 05:04:03;;;;;;;2.22;1.38;;;9.50;99.90;;;;;;4992717;28;20775;-60
2022/05/30 05:06:29;;;;;;;4.53;1.52;;;9.50;99.90;;;;;;4986604;28;20038;-57
2022/05/30 05:09:01;;;;;;;2.05;1.25;;;9.50;99.90;;;;;;4975735;28;20103;-58
2022/05/30 05:11:30;;;;;;;11.23;1.50;;;9.50;99.90;;;;;;4993017;28;20073;-57
2022/05/30 05:13:56;;;;;;;3.30;1.20;;;9.60;99.90;;;;;;4992108;28;20042;-57
2022/05/30 05:16:27;;;;;;;2.97;1.20;;;9.60;99.90;;;;;;4989803;28;20477;-58
2022/05/30 05:18:53;;;;;;;1.20;1.00;;;9.60;99.90;;;;;;4993089;28;20038;-57
2022/05/30 05:21:22;;;;;;;2.08;0.85;;;9.60;99.90;;;;;;4993224;28;20029;-57
2022/05/30 05:23:48;;;;;;;1.77;0.90;;;9.70;99.90;;;;;;4990181;28;21378;-56
2022/05/30 05:26:14;;;;;;;3.47;1.15;;;9.70;99.90;;;;;;4993821;28;20100;-58
2022/05/30 05:28:40;;;;;;;4.18;0.95;;;9.80;99.90;;;;;;4983875;28;20636;-58
2022/05/30 05:31:09;;;;;;;2.33;1.10;;;9.90;99.90;;;;;;4977011;28;20052;-59
2022/05/30 05:33:35;;;;;;;2.20;0.95;;;10.00;99.90;;;;;;4991921;28;20042;-60
2022/05/30 05:36:01;;;;;;;4.32;0.98;;;10.00;99.90;;;;;;4983967;28;20061;-57
2022/05/30 05:38:27;;;;;;;3.22;1.00;;;10.00;99.90;;;;;;4981700;28;20413;-56
2022/05/30 05:40:52;;;;;;;2.00;0.80;;;10.00;99.90;;;;;;4981245;28;20124;-59
2022/05/30 05:43:18;;;;;;;2.92;0.80;;;10.00;99.90;;;;;;4992565;28;20048;-58
2022/05/30 05:45:45;;;;;;;1.98;1.08;;;10.00;99.90;;;;;;4987488;28;20034;-61
2022/05/30 05:48:11;;;;;;;2.85;0.85;;;10.10;99.90;;;;;;4992158;28;20043;-56
2022/05/30 05:50:38;;;;;;;2.97;1.25;;;10.10;99.90;;;;;;4993452;28;20038;-57
2022/05/30 05:53:05;;;;;;;3.88;0.93;;;10.20;99.90;;;;;;4994419;28;20408;-59
2022/05/30 05:55:31;;;;;;;5.05;1.20;;;10.10;99.90;;;;;;4995667;28;20038;-57
2022/05/30 05:57:57;;;;;;;2.17;1.02;;;10.10;99.90;;;;;;4989279;28;20112;-57
2022/05/30 06:00:22;;;;;;;3.28;1.10;;;10.20;99.90;;;;;;4987527;28;20477;-59
2022/05/30 06:02:48;;;;;;;5.10;1.38;;;10.10;99.90;;;;;;4991246;28;20606;-58
2022/05/30 06:05:14;;;;;;;4.75;1.10;;;10.20;99.90;;;;;;4977887;28;20117;-58
2022/05/30 06:07:42;;;;;;;2.15;1.35;;;10.30;99.90;;;;;;4995902;28;20041;-56
2022/05/30 06:10:11;;;;;;;5.20;1.27;;;10.30;99.90;;;;;;4992733;28;20062;-57
2022/05/30 06:12:42;;;;;;;1.92;0.98;;;10.50;99.90;;;;;;5003754;28;20046;-57
2022/05/30 06:15:10;;;;;;;4.05;1.10;;;10.70;99.90;;;;;;4991906;28;20688;-58
2022/05/30 06:17:44;;;;;;;3.00;1.23;;;10.90;99.90;;;;;;4990278;28;20049;-57
2022/05/30 06:20:12;;;;;;;3.97;1.10;;;11.00;99.90;;;;;;4989983;28;20034;-57
2022/05/30 06:22:38;;;;;;;3.92;1.20;;;11.00;99.90;;;;;;4994901;28;20210;-58
2022/05/30 06:25:05;;;;;;;3.08;0.98;;;11.00;99.90;;;;;;4991943;28;20125;-60
2022/05/30 06:27:31;;;;;;;3.58;0.82;;;10.90;99.90;;;;;;4988841;28;20076;-58
2022/05/30 06:29:57;;;;;;;2.90;0.88;;;10.80;99.90;;;;;;4986585;28;20056;-59
2022/05/30 06:32:22;;;;;;;4.97;1.52;;;10.80;99.90;;;;;;4993867;28;20038;-59
2022/05/30 06:34:48;;;;;;;2.75;0.80;;;10.70;99.90;;;;;;4983544;28;20097;-58
2022/05/30 06:37:14;;;;;;;4.13;0.90;;;10.70;99.90;;;;;;4985542;28;20053;-59
2022/05/30 06:39:40;;;;;;;3.22;1.05;;;10.60;99.90;;;;;;4986306;28;20050;-60
2022/05/30 06:42:13;;;;;;;2.28;0.77;;;10.70;99.90;;;;;;4994917;28;20124;-58
2022/05/30 06:44:40;;;;;;;3.08;1.25;;;10.70;99.90;;;;;;4993211;28;20046;-59
2022/05/30 06:47:07;;;;;;;2.60;0.90;;;10.70;99.90;;;;;;4991610;28;20483;-58
2022/05/30 06:49:34;;;;;;;2.00;0.95;;;10.70;99.90;;;;;;4990835;28;20628;-59
2022/05/30 06:51:59;;;;;;;5.32;1.35;;;10.80;99.90;;;;;;4985238;28;20457;-59
2022/05/30 06:54:25;;;;;;;3.65;1.33;;;10.80;99.90;;;;;;4997867;28;20044;-61
2022/05/30 06:59:36;;;;;;;4.78;1.30;;;11.10;99.90;;;;;;5001139;28;20504;-60
2022/05/30 07:02:04;;;;;;;2.75;0.95;;;11.30;99.90;;;;;;5002463;28;20041;-59
2022/05/30 07:04:34;;;;;;;3.38;1.10;;;11.50;99.90;;;;;;4994918;28;20037;-60
2022/05/30 07:07:05;;;;;;;5.70;1.00;;;11.60;99.90;;;;;;4989647;28;20132;-59
2022/05/30 07:09:32;;;;;;;5.10;1.20;;;11.70;99.90;;;;;;4990163;28;20049;-60
2022/05/30 07:11:57;;;;;;;4.90;0.90;;;12.00;99.90;;;;;;4986839;28;20609;-58
2022/05/30 07:14:23;;;;;;;3.45;0.80;;;12.20;99.90;;;;;;4988169;28;20046;-57
2022/05/30 07:16:49;;;;;;;1.95;0.65;;;12.20;99.90;;;;;;4983362;28;20050;-58
2022/05/30 07:19:15;;;;;;;2.00;0.73;;;12.40;99.90;;;;;;4987157;28;20572;-59
2022/05/30 07:21:41;;;;;;;3.67;0.98;;;12.40;99.90;;;;;;4991429;28;20508;-60
2022/05/30 07:24:09;;;;;;;2.20;0.80;;;12.30;99.90;;;;;;4984086;28;20042;-59
2022/05/30 07:26:35;;;;;;;6.07;0.73;;;12.40;99.90;;;;;;4993206;28;20038;-59
2022/05/30 07:29:00;;;;;;;2.20;0.73;;;12.30;99.90;;;;;;4972328;28;20048;-60
2022/05/30 07:31:28;;;;;;;1.60;0.63;;;12.30;99.90;;;;;;4991842;28;20033;-59
2022/05/30 07:33:54;;;;;;;2.42;0.65;;;12.30;99.90;;;;;;4986048;28;22099;-57
2022/05/30 07:36:26;;;;;;;2.92;0.60;;;12.20;99.90;;;;;;4983557;28;20288;-59
2022/05/30 07:38:53;;;;;;;2.22;0.73;;;12.30;99.90;;;;;;4988342;28;20041;-58
2022/05/30 07:41:21;;;;;;;2.58;0.63;;;12.20;99.90;;;;;;5004075;28;20229;-59
2022/05/30 07:43:47;;;;;;;3.95;1.13;;;12.30;99.90;;;;;;4992791;28;20046;-58
2022/05/30 07:46:15;;;;;;;1.83;0.40;;;12.20;99.90;;;;;;4993044;28;20050;-59
2022/05/30 07:48:41;;;;;;;2.83;0.77;;;12.20;99.90;;;;;;4993222;28;20050;-59
2022/05/30 07:51:08;;;;;;;2.38;0.38;;;12.20;99.90;;;;;;4990188;28;20038;-59
2022/05/30 07:53:35;;;;;;;1.35;0.43;;;12.20;99.90;;;;;;4999794;28;20037;-59
2022/05/30 07:56:05;;;;;;;1.75;0.40;;;12.30;99.90;;;;;;4993428;28;20042;-58
2022/05/30 07:58:32;;;;;;;0.80;0.32;;;12.30;99.90;;;;;;4995225;28;20567;-59
2022/05/30 08:00:58;;;;;;;1.92;0.30;;;12.40;99.90;;;;;;4993657;28;20034;-58
2022/05/30 08:03:25;;;;;;;0.75;0.35;;;12.30;99.90;;;;;;4984749;28;20170;-56
2022/05/30 08:06:01;;;;;;;1.25;0.30;;;12.30;99.90;;;;;;4986359;28;20038;-58
2022/05/30 08:08:27;;;;;;;4.22;1.02;;;12.40;99.90;;;;;;4995573;28;20073;-59
2022/05/30 08:10:53;;;;;;;1.45;0.50;;;12.40;99.90;;;;;;4993751;28;20093;-59
2022/05/30 08:13:19;;;;;;;0.90;0.30;;;12.50;99.90;;;;;;4991723;28;20056;-59
2022/05/30 08:15:44;;;;;;;3.05;0.70;;;12.70;99.90;;;;;;5008171;28;20129;-57
2022/05/30 08:18:15;;;;;;;2.92;0.57;;;12.90;99.90;;;;;;4992284;28;20584;-59
2022/05/30 08:20:41;;;;;;;0.32;0.32;;;13.30;99.90;;;;;;4990590;28;20038;-59
2022/05/30 08:23:07;;;;;;;2.30;0.47;;;13.60;99.90;;;;;;4992371;28;20046;-59
2022/05/30 08:25:33;;;;;;;2.45;0.55;;;13.70;99.90;;;;;;4996225;28;20518;-58
2022/05/30 08:27:59;;;;;;;1.88;0.60;;;13.60;99.90;;;;;;4998411;28;20523;-59
2022/05/30 08:30:25;;;;;;;2.08;0.50;;;13.40;99.90;;;;;;4990613;28;20053;-59
2022/05/30 08:32:50;;;;;;;1.80;0.50;;;13.40;99.90;;;;;;4996772;28;20039;-59
2022/05/30 08:35:19;;;;;;;1.27;0.45;;;13.30;99.90;;;;;;4992120;28;20619;-58
2022/05/30 08:37:45;;;;;;;2.30;0.43;;;13.20;99.90;;;;;;4989670;28;20109;-58
2022/05/30 08:43:30;;;;;;;2.33;0.60;;;12.90;99.90;;;;;;4993700;28;20049;-59
2022/05/30 08:46:02;;;;;;;1.77;0.40;;;12.90;99.90;;;;;;4997610;28;20037;-60
2022/05/30 08:49:28;;;;;;;2.05;0.50;;;12.90;99.90;;;;;;4974075;28;20049;-59
2022/05/30 08:52:13;;;;;;;1.60;0.70;;;13.10;99.90;;;;;;4949382;28;20061;-60
2022/05/30 08:55:01;;;;;;;1.20;0.50;;;13.30;99.90;;;;;;4947877;28;20055;-55
2022/05/30 08:57:36;;;;;;;2.83;0.63;;;13.50;99.90;;;;;;4980192;28;20089;-61
2022/05/30 09:00:14;;;;;;;0.98;0.40;;;13.40;99.90;;;;;;4992841;28;20034;-59
2022/05/30 09:02:47;;;;;;;2.65;0.55;;;13.50;99.90;;;;;;4991635;28;20053;-59
2022/05/30 09:05:30;;;;;;;1.30;0.50;;;13.50;99.90;;;;;;4991396;28;20141;-58
2022/05/30 09:08:00;;;;;;;2.05;0.50;;;13.40;99.80;;;;;;4994298;28;20045;-59
2022/05/30 09:10:54;;;;;;;4.45;0.68;;;13.10;99.90;;;;;;4990959;28;20050;-58
2022/05/30 09:13:22;;;;;;;4.20;1.00;;;13.10;99.90;;;;;;4997130;28;20034;-57
2022/05/30 09:16:20;;;;;;;3.63;0.80;;;12.90;99.90;;;;;;4992674;28;20495;-55
2022/05/30 09:18:52;;;;;;;3.72;1.75;;;12.60;99.90;;;;;;4994170;28;20390;-58
2022/05/30 09:21:20;;;;;;;2.78;0.70;;;12.50;99.90;;;;;;4994726;28;20072;-58
2022/05/30 09:23:46;;;;;;;3.25;0.77;;;12.50;99.90;;;;;;4996436;28;20133;-58
2022/05/30 09:26:21;;;;;;;2.05;0.70;;;12.40;99.90;;;;;;4994462;28;20034;-57
2022/05/30 09:28:49;;;;;;;3.75;0.70;;;12.40;99.90;;;;;;4996151;28;20065;-59
2022/05/30 09:31:26;;;;;;;1.83;0.70;;;12.40;99.90;;;;;;4993008;28;20065;-56
2022/05/30 09:33:55;;;;;;;1.92;0.60;;;12.30;99.90;;;;;;4995622;28;20111;-58
2022/05/30 09:36:24;;;;;;;2.28;0.70;;;12.30;99.90;;;;;;4988912;28;20161;-55
2022/05/30 09:39:06;;;;;;;2.15;0.47;;;12.20;99.90;;;;;;4969346;28;20046;-56
2022/05/30 09:41:38;;;;;;;1.95;0.40;;;12.10;99.90;;;;;;4989332;28;20046;-54
2022/05/30 09:44:11;;;;;;;2.50;0.57;;;12.10;99.90;;;;;;4996433;28;20073;-60
2022/05/30 09:46:50;;;;;;;5.60;1.00;;;12.00;99.90;;;;;;4997983;28;20177;-58
2022/05/30 09:49:21;;;;;;;1.77;0.70;;;12.00;99.90;;;;;;4997647;28;20208;-55
2022/05/30 09:51:49;;;;;;;2.78;1.00;;;12.10;99.90;;;;;;4997546;28;20049;-59
2022/05/30 09:54:24;;;;;;;1.50;0.68;;;12.20;99.90;;;;;;4980894;28;20376;-57
2022/05/30 09:56:56;;;;;;;3.28;1.25;;;12.20;99.90;;;;;;4995485;28;20041;-58
2022/05/30 09:59:30;;;;;;;2.13;0.80;;;12.20;99.90;;;;;;4989560;28;20104;-58
2022/05/30 10:01:56;;;;;;;3.90;0.93;;;12.40;99.90;;;;;;4989206;28;20049;-56
2022/05/30 10:04:43;;;;;;;2.28;0.80;;;12.40;99.90;;;;;;5004559;28;20041;-56
2022/05/30 10:07:13;;;;;;;3.13;1.00;;;12.50;99.90;;;;;;4995480;28;20111;-57
2022/05/30 10:10:00;;;;;;;8.10;0.90;;;12.50;99.90;;;;;;4998518;28;20120;-58
2022/05/30 10:12:40;;;;;;;5.45;0.90;;;12.60;99.90;;;;;;4994285;28;20085;-58
2022/05/30 10:15:24;;;;;;;5.07;0.88;;;12.80;99.90;;;;;;4997559;28;20365;-57
2022/05/30 10:17:51;;;;;;;;;;;12.90;99.90;;;;;;4990138;28;20042;-58
2022/05/30 10:20:32;;;;;;;6.32;0.98;;;12.90;99.90;;;;;;4996059;28;20028;-58
2022/05/30 10:29:57;;;;;;;2.72;1.10;;;13.30;99.90;;;;;;4980075;28;20433;-58
2022/05/30 10:32:29;;;;;;;3.15;0.93;;;13.60;99.90;;;;;;4994993;28;20038;-58
2022/05/30 10:35:26;;;;;;;2.38;1.17;;;13.70;99.90;;;;;;4992989;28;20052;-57
2022/05/30 10:38:05;;;;;;;3.58;1.15;;;13.80;99.90;;;;;;5017660;23;20053;-56
2022/05/30 10:40:52;;;;;;;8.43;0.95;;;13.80;99.90;;;;;;4985703;28;20408;-54
2022/05/30 10:43:28;;;;;;;3.63;0.80;;;13.80;99.90;;;;;;4988138;28;20125;-59
2022/05/30 10:46:08;;;;;;;2.58;0.88;;;13.80;99.90;;;;;;4989658;28;20052;-56
2022/05/30 10:48:43;;;;;;;3.28;0.98;;;13.90;99.90;;;;;;4992534;28;20033;-55
2022/05/30 10:51:17;;;;;;;5.18;1.50;;;13.90;99.90;;;;;;4981256;28;20057;-58
2022/05/30 10:54:10;;;;;;;6.03;1.08;;;13.90;99.90;;;;;;4979461;28;20564;-55
2022/05/30 10:56:39;;;;;;;3.45;1.60;;;13.80;99.70;;;;;;4990522;28;20141;-54
2022/05/30 10:59:29;;;;;;;3.28;0.73;;;13.70;99.60;;;;;;4983864;28;20034;-60
2022/05/30 11:02:06;;;;;;;4.00;0.88;;;13.90;99.90;;;;;;4982005;28;20741;-52
2022/05/30 11:04:43;;;;;;;3.38;0.90;;;14.00;99.90;;;;;;4981211;28;20719;-54
2022/05/30 11:07:42;;;;;;;5.47;1.40;;;14.00;99.90;;;;;;4994470;28;20127;-58
2022/05/30 11:10:21;;;;;;;3.03;0.73;;;14.00;99.80;;;;;;4989382;28;20053;-55
2022/05/30 11:13:13;;;;;;;3.50;0.70;;;13.90;99.40;;;;;;4961418;28;20439;-54
2022/05/30 11:15:45;;;;;;;3.80;0.95;;;13.90;99.20;;;;;;4964928;28;20217;-55
2022/05/30 11:18:20;;;;;;;5.10;0.65;;;14.00;98.80;;;;;;4966553;28;20101;-58
2022/05/30 11:21:00;;;;;;;2.88;0.45;;;14.00;98.50;;;;;;4965093;28;20181;-54
2022/05/30 11:23:26;;;;;;;4.55;0.88;;;13.90;97.90;;;;;;4965829;28;20043;-57
2022/05/30 11:26:17;;;;;;;3.95;0.73;;;13.90;98.40;;;;;;4952085;28;20057;-53
2022/05/30 11:28:51;;;;;;;2.45;0.75;;;13.80;98.00;;;;;;4949724;28;20181;-54
2022/05/30 11:31:27;;;;;;;2.03;0.57;;;13.60;97.80;;;;;;4973849;28;20146;-56
2022/05/30 11:34:11;;;;;;;6.10;1.20;;;13.60;99.10;;;;;;4949594;28;20489;-56
2022/05/30 11:36:37;;;;;;;;;;;13.40;99.10;;;;;;4969852;28;20400;-55
2022/05/30 11:39:41;;;;;;;2.47;0.80;;;13.40;99.90;;;;;;4979441;28;19918;-56
2022/05/30 11:42:43;;;;;;;2.28;0.90;;;13.40;99.90;;;;;;4979049;28;20039;-56
2022/05/30 11:45:21;;;;;;;5.10;1.17;;;13.30;99.90;;;;;;4980194;28;20058;-58
2022/05/30 11:48:07;;;;;;;4.07;1.10;;;13.40;99.90;;;;;;4986945;28;20389;-56
2022/05/30 11:50:59;;;;;;;2.80;1.15;;;13.30;99.90;;;;;;4992215;28;20049;-54
2022/05/30 11:53:40;;;;;;;4.22;1.00;;;13.60;99.90;;;;;;4992551;28;20089;-56
2022/05/30 11:56:35;;;;;;;5.47;1.00;;;13.80;99.90;;;;;;4985649;28;20034;-57
2022/05/30 11:59:22;;;;;;;4.13;1.45;;;14.00;99.90;;;;;;4968163;28;20107;-55
2022/05/30 12:01:51;;;;;;;2.80;0.90;;;14.10;99.90;;;;;;4968143;28;20065;-57
2022/05/30 12:04:42;;;;;;;3.47;1.10;;;14.20;99.90;;;;;;4965517;28;20405;-59
2022/05/30 12:07:35;;;;;;;4.30;0.80;;;14.20;99.40;;;;;;4953528;28;20046;-55
2022/05/30 12:10:13;;;;;;;3.80;0.90;;;14.10;99.90;;;;;;4976187;28;20051;-57
2022/05/30 12:13:26;;;;;;;2.53;0.70;;;14.20;99.60;;;;;;4974345;28;20720;-56
2022/05/30 12:16:29;;;;;;;2.25;0.80;;;14.20;99.40;;;;;;4890962;29;20067;-55
2022/05/30 12:24:39;;;;;;;4.95;1.00;;;14.10;99.30;;;;;;4961451;28;20500;-56
2022/05/30 12:27:34;;;;;;;3.55;0.77;;;14.00;99.40;;;;;;4960865;28;20452;-58
2022/05/30 12:30:34;;;;;;;3.60;1.30;;;13.70;98.80;;;;;;4972032;28;20038;-54
2022/05/30 12:33:01;;;;;;;2.65;0.88;;;13.60;99.70;;;;;;4968347;28;20096;-56
2022/05/30 12:35:29;;;;;;;2.90;0.80;;;13.60;99.90;;;;;;4962784;28;20569;-55
2022/05/30 12:38:01;;;;;;;2.35;0.93;;;13.60;99.90;;;;;;4971080;28;20038;-55
2022/05/30 12:40:26;;;;;;;3.35;0.93;;;13.60;99.90;;;;;;4967322;28;20445;-58
2022/05/30 12:43:27;;;;;;;2.80;0.98;;;13.40;99.90;;;;;;4961693;28;20092;-57
2022/05/30 12:45:55;;;;;;;2.15;0.90;;;13.40;99.90;;;;;;4962687;28;20587;-55
2022/05/30 12:48:57;;;;;;;3.17;0.93;;;13.60;99.90;;;;;;4966458;28;20113;-58
2022/05/30 12:51:30;;;;;;;1.75;0.98;;;13.40;99.90;;;;;;4981298;28;20055;-54
2022/05/30 12:53:59;;;;;;;3.07;0.60;;;13.50;99.90;;;;;;4961473;28;20074;-57
2022/05/30 12:56:37;;;;;;;1.73;0.82;;;13.60;99.90;;;;;;4961502;28;20827;-54
2022/05/30 12:59:02;;;;;;;2.25;1.00;;;13.60;99.90;;;;;;4965580;28;20057;-56
2022/05/30 13:01:43;;;;;;;2.22;0.68;;;13.60;99.90;;;;;;4949296;28;20053;-53
2022/05/30 13:04:15;;;;;;;0.82;0.50;;;13.60;99.90;;;;;;4985517;28;20054;-58
2022/05/30 13:06:52;;;;;;;3.63;0.80;;;14.10;99.90;;;;;;4982386;28;20047;-53
2022/05/30 13:09:30;;;;;;;1.60;0.60;;;14.70;99.90;;;;;;4968759;28;20456;-55
2022/05/30 13:12:10;;;;;;;1.88;0.60;;;15.00;98.60;;;;;;4973370;28;20381;-57
2022/05/30 13:15:01;;;;;;;1.65;0.65;;;15.30;98.50;;;;;;4968865;28;20602;-53
2022/05/30 13:17:34;;;;;;;2.22;0.50;;;15.30;98.00;;;;;;4965534;28;20053;-57
2022/05/30 13:20:12;;;;;;;2.30;0.70;;;15.10;97.60;;;;;;4966066;28;20045;-59
2022/05/30 13:22:59;;;;;;;1.38;0.60;;;15.20;98.50;;;;;;4968097;28;20630;-55
2022/05/30 13:25:29;;;;;;;1.83;0.75;;;14.90;96.30;;;;;;4970744;28;20042;-58
2022/05/30 13:27:55;;;;;;;3.60;0.70;;;14.60;97.10;;;;;;4980949;28;20042;-56
2022/05/30 13:30:28;;;;;;;3.92;0.80;;;14.60;96.60;;;;;;4970658;28;20047;-56
2022/05/30 13:32:54;;;;;;;2.10;1.00;;;14.40;96.20;;;;;;4980668;28;20517;-56
2022/05/30 13:35:25;;;;;;;1.65;0.55;;;14.20;95.90;;;;;;4978889;28;20133;-54